sensor_id;sensor_type;location;lat;lon;timestamp;P1;durP1;ratioP1;P2;durP2;ratioP2
46721;SDS011;32455;43.430;23.136;2022-09-01T00:01:16;16.08;;;11.00;;
46721;SDS011;32455;43.430;23.136;2022-09-01T00:04:05;12.15;;;10.77;;
46721;SDS011;32455;43.430;23.136;2022-09-01T00:06:54;11.02;;;9.93;;
46721;SDS011;32455;43.430;23.136;2022-09-01T00:09:39;12.95;;;10.77;;
46721;SDS011;32455;43.430;23.136;2022-09-01T00:12:25;12.20;;;10.15;;
46721;SDS011;32455;43.430;23.136;2022-09-01T00:15:12;11.88;;;10.57;;
46721;SDS011;32455;43.430;23.136;2022-09-01T00:17:58;11.57;;;10.32;;
46721;SDS011;32455;43.430;23.136;2022-09-01T00:20:44;11.00;;;9.57;;
46721;SDS011;32455;43.430;23.136;2022-09-01T00:23:30;11.65;;;10.55;;
46721;SDS011;32455;43.430;23.136;2022-09-01T00:26:15;10.80;;;9.73;;
46721;SDS011;32455;43.430;23.136;2022-09-01T00:29:01;13.15;;;10.43;;
46721;SDS011;32455;43.430;23.136;2022-09-01T00:31:47;10.90;;;9.85;;
46721;SDS011;32455;43.430;23.136;2022-09-01T00:34:33;11.30;;;10.15;;
46721;SDS011;32455;43.430;23.136;2022-09-01T00:37:18;12.63;;;10.85;;
46721;SDS011;32455;43.430;23.136;2022-09-01T00:40:04;11.35;;;10.23;;
46721;SDS011;32455;43.430;23.136;2022-09-01T00:42:51;10.35;;;9.27;;
46721;SDS011;32455;43.430;23.136;2022-09-01T00:45:37;11.60;;;10.40;;
46721;SDS011;32455;43.430;23.136;2022-09-01T00:48:23;10.88;;;9.93;;
46721;SDS011;32455;43.430;23.136;2022-09-01T00:51:11;10.60;;;9.68;;
46721;SDS011;32455;43.430;23.136;2022-09-01T00:53:57;11.55;;;10.43;;
46721;SDS011;32455;43.430;23.136;2022-09-01T00:56:44;11.77;;;10.23;;
46721;SDS011;32455;43.430;23.136;2022-09-01T00:59:31;11.52;;;10.35;;
46721;SDS011;32455;43.430;23.136;2022-09-01T01:02:16;10.77;;;9.68;;
46721;SDS011;32455;43.430;23.136;2022-09-01T01:05:02;12.40;;;10.20;;
46721;SDS011;32455;43.430;23.136;2022-09-01T01:07:49;12.88;;;10.00;;
46721;SDS011;32455;43.430;23.136;2022-09-01T01:10:36;10.63;;;9.55;;
46721;SDS011;32455;43.430;23.136;2022-09-01T01:13:25;11.02;;;9.70;;
46721;SDS011;32455;43.430;23.136;2022-09-01T01:16:14;11.00;;;9.85;;
46721;SDS011;32455;43.430;23.136;2022-09-01T01:19:00;10.85;;;9.75;;
46721;SDS011;32455;43.430;23.136;2022-09-01T01:21:45;12.70;;;9.95;;
46721;SDS011;32455;43.430;23.136;2022-09-01T01:24:50;10.43;;;9.05;;
46721;SDS011;32455;43.430;23.136;2022-09-01T01:27:36;10.52;;;9.38;;
46721;SDS011;32455;43.430;23.136;2022-09-01T01:30:21;12.23;;;10.38;;
46721;SDS011;32455;43.430;23.136;2022-09-01T01:33:07;10.52;;;8.93;;
46721;SDS011;32455;43.430;23.136;2022-09-01T01:35:53;10.70;;;9.60;;
46721;SDS011;32455;43.430;23.136;2022-09-01T01:38:44;10.07;;;9.18;;
46721;SDS011;32455;43.430;23.136;2022-09-01T01:41:33;9.65;;;8.70;;
46721;SDS011;32455;43.430;23.136;2022-09-01T01:44:22;11.55;;;9.20;;
46721;SDS011;32455;43.430;23.136;2022-09-01T01:47:11;10.43;;;9.32;;
46721;SDS011;32455;43.430;23.136;2022-09-01T01:49:57;10.27;;;9.23;;
46721;SDS011;32455;43.430;23.136;2022-09-01T01:52:42;12.27;;;9.75;;
46721;SDS011;32455;43.430;23.136;2022-09-01T01:55:26;10.82;;;9.85;;
46721;SDS011;32455;43.430;23.136;2022-09-01T01:58:18;11.05;;;10.00;;
46721;SDS011;32455;43.430;23.136;2022-09-01T02:01:05;12.50;;;10.85;;
46721;SDS011;32455;43.430;23.136;2022-09-01T02:03:51;11.15;;;10.15;;
46721;SDS011;32455;43.430;23.136;2022-09-01T02:06:39;12.27;;;10.50;;
46721;SDS011;32455;43.430;23.136;2022-09-01T02:09:29;11.73;;;9.02;;
46721;SDS011;32455;43.430;23.136;2022-09-01T02:12:15;11.15;;;9.88;;
46721;SDS011;32455;43.430;23.136;2022-09-01T02:15:05;13.23;;;9.40;;
46721;SDS011;32455;43.430;23.136;2022-09-01T02:17:51;9.95;;;8.95;;
46721;SDS011;32455;43.430;23.136;2022-09-01T02:20:46;10.82;;;9.68;;
46721;SDS011;32455;43.430;23.136;2022-09-01T02:23:33;11.52;;;9.68;;
46721;SDS011;32455;43.430;23.136;2022-09-01T02:26:19;11.95;;;9.07;;
46721;SDS011;32455;43.430;23.136;2022-09-01T02:29:09;11.00;;;9.50;;
46721;SDS011;32455;43.430;23.136;2022-09-01T02:32:01;13.15;;;8.93;;
46721;SDS011;32455;43.430;23.136;2022-09-01T02:34:50;10.77;;;9.77;;
46721;SDS011;32455;43.430;23.136;2022-09-01T02:37:37;9.07;;;8.18;;
46721;SDS011;32455;43.430;23.136;2022-09-01T02:40:23;10.88;;;9.15;;
46721;SDS011;32455;43.430;23.136;2022-09-01T02:43:09;9.73;;;8.10;;
46721;SDS011;32455;43.430;23.136;2022-09-01T02:45:56;10.27;;;8.65;;
46721;SDS011;32455;43.430;23.136;2022-09-01T02:48:43;9.63;;;8.65;;
46721;SDS011;32455;43.430;23.136;2022-09-01T02:51:29;10.02;;;8.95;;
46721;SDS011;32455;43.430;23.136;2022-09-01T02:54:15;14.13;;;8.20;;
46721;SDS011;32455;43.430;23.136;2022-09-01T02:57:01;14.70;;;9.15;;
46721;SDS011;32455;43.430;23.136;2022-09-01T02:59:47;9.38;;;8.20;;
46721;SDS011;32455;43.430;23.136;2022-09-01T03:02:33;11.88;;;9.38;;
46721;SDS011;32455;43.430;23.136;2022-09-01T03:05:19;10.07;;;8.85;;
46721;SDS011;32455;43.430;23.136;2022-09-01T03:08:12;13.85;;;8.73;;
46721;SDS011;32455;43.430;23.136;2022-09-01T03:11:01;13.25;;;10.15;;
46721;SDS011;32455;43.430;23.136;2022-09-01T03:13:47;11.32;;;9.40;;
46721;SDS011;32455;43.430;23.136;2022-09-01T03:16:32;10.52;;;9.43;;
46721;SDS011;32455;43.430;23.136;2022-09-01T03:19:18;10.95;;;8.50;;
46721;SDS011;32455;43.430;23.136;2022-09-01T03:22:04;10.52;;;9.43;;
46721;SDS011;32455;43.430;23.136;2022-09-01T03:24:50;9.95;;;8.95;;
46721;SDS011;32455;43.430;23.136;2022-09-01T03:27:35;11.10;;;9.35;;
46721;SDS011;32455;43.430;23.136;2022-09-01T03:30:22;13.20;;;10.32;;
46721;SDS011;32455;43.430;23.136;2022-09-01T03:33:08;10.77;;;9.68;;
46721;SDS011;32455;43.430;23.136;2022-09-01T03:35:55;12.13;;;10.00;;
46721;SDS011;32455;43.430;23.136;2022-09-01T03:38:44;12.60;;;10.43;;
46721;SDS011;32455;43.430;23.136;2022-09-01T03:41:32;11.23;;;10.02;;
46721;SDS011;32455;43.430;23.136;2022-09-01T03:44:21;11.32;;;10.13;;
46721;SDS011;32455;43.430;23.136;2022-09-01T03:47:07;11.32;;;10.15;;
46721;SDS011;32455;43.430;23.136;2022-09-01T03:49:59;11.88;;;10.60;;
46721;SDS011;32455;43.430;23.136;2022-09-01T03:52:46;12.07;;;10.80;;
46721;SDS011;32455;43.430;23.136;2022-09-01T03:55:35;12.60;;;10.18;;
46721;SDS011;32455;43.430;23.136;2022-09-01T03:58:23;11.88;;;10.68;;
46721;SDS011;32455;43.430;23.136;2022-09-01T04:01:08;14.05;;;10.52;;
46721;SDS011;32455;43.430;23.136;2022-09-01T04:03:54;12.40;;;11.10;;
46721;SDS011;32455;43.430;23.136;2022-09-01T04:06:40;14.10;;;11.25;;
46721;SDS011;32455;43.430;23.136;2022-09-01T04:09:27;13.45;;;10.77;;
46721;SDS011;32455;43.430;23.136;2022-09-01T04:12:13;12.45;;;10.55;;
46721;SDS011;32455;43.430;23.136;2022-09-01T04:14:59;12.55;;;11.30;;
46721;SDS011;32455;43.430;23.136;2022-09-01T04:17:45;14.52;;;12.30;;
46721;SDS011;32455;43.430;23.136;2022-09-01T04:20:57;14.02;;;11.05;;
46721;SDS011;32455;43.430;23.136;2022-09-01T04:23:43;14.82;;;12.07;;
46721;SDS011;32455;43.430;23.136;2022-09-01T04:26:30;15.32;;;11.82;;
46721;SDS011;32455;43.430;23.136;2022-09-01T04:29:17;13.60;;;12.20;;
46721;SDS011;32455;43.430;23.136;2022-09-01T04:32:11;17.20;;;13.50;;
46721;SDS011;32455;43.430;23.136;2022-09-01T04:34:56;19.55;;;14.90;;
46721;SDS011;32455;43.430;23.136;2022-09-01T04:37:41;19.58;;;15.88;;
46721;SDS011;32455;43.430;23.136;2022-09-01T04:40:27;24.67;;;16.17;;
46721;SDS011;32455;43.430;23.136;2022-09-01T04:43:12;23.73;;;16.38;;
46721;SDS011;32455;43.430;23.136;2022-09-01T04:45:57;24.27;;;17.17;;
46721;SDS011;32455;43.430;23.136;2022-09-01T04:48:43;25.48;;;18.60;;
46721;SDS011;32455;43.430;23.136;2022-09-01T04:51:29;28.58;;;19.42;;
46721;SDS011;32455;43.430;23.136;2022-09-01T04:54:15;26.98;;;19.92;;
46721;SDS011;32455;43.430;23.136;2022-09-01T04:57:01;30.17;;;20.85;;
46721;SDS011;32455;43.430;23.136;2022-09-01T04:59:46;27.48;;;19.48;;
46721;SDS011;32455;43.430;23.136;2022-09-01T05:02:32;27.70;;;19.67;;
46721;SDS011;32455;43.430;23.136;2022-09-01T05:05:19;29.73;;;20.63;;
46721;SDS011;32455;43.430;23.136;2022-09-01T05:08:06;27.10;;;19.77;;
46721;SDS011;32455;43.430;23.136;2022-09-01T05:10:58;26.13;;;19.90;;
46721;SDS011;32455;43.430;23.136;2022-09-01T05:13:44;28.08;;;19.55;;
46721;SDS011;32455;43.430;23.136;2022-09-01T05:16:32;23.67;;;20.02;;
46721;SDS011;32455;43.430;23.136;2022-09-01T05:19:19;23.98;;;19.10;;
46721;SDS011;32455;43.430;23.136;2022-09-01T05:22:05;25.13;;;20.25;;
46721;SDS011;32455;43.430;23.136;2022-09-01T05:24:52;21.98;;;18.90;;
46721;SDS011;32455;43.430;23.136;2022-09-01T05:27:41;26.40;;;20.00;;
46721;SDS011;32455;43.430;23.136;2022-09-01T05:30:33;25.02;;;19.38;;
46721;SDS011;32455;43.430;23.136;2022-09-01T05:33:20;25.05;;;19.15;;
46721;SDS011;32455;43.430;23.136;2022-09-01T05:36:06;24.63;;;19.73;;
46721;SDS011;32455;43.430;23.136;2022-09-01T05:38:52;22.30;;;19.27;;
46721;SDS011;32455;43.430;23.136;2022-09-01T05:41:38;23.35;;;18.85;;
46721;SDS011;32455;43.430;23.136;2022-09-01T05:44:25;25.63;;;19.38;;
46721;SDS011;32455;43.430;23.136;2022-09-01T05:47:10;21.55;;;18.52;;
46721;SDS011;32455;43.430;23.136;2022-09-01T05:49:59;22.58;;;18.08;;
46721;SDS011;32455;43.430;23.136;2022-09-01T05:52:45;22.58;;;18.85;;
46721;SDS011;32455;43.430;23.136;2022-09-01T05:55:30;24.80;;;19.08;;
46721;SDS011;32455;43.430;23.136;2022-09-01T05:58:20;21.50;;;16.85;;
46721;SDS011;32455;43.430;23.136;2022-09-01T06:01:06;23.38;;;17.00;;
46721;SDS011;32455;43.430;23.136;2022-09-01T06:03:55;18.45;;;16.30;;
46721;SDS011;32455;43.430;23.136;2022-09-01T06:06:43;18.55;;;15.40;;
46721;SDS011;32455;43.430;23.136;2022-09-01T06:09:36;17.45;;;14.82;;
46721;SDS011;32455;43.430;23.136;2022-09-01T06:12:23;18.15;;;14.07;;
46721;SDS011;32455;43.430;23.136;2022-09-01T06:15:10;16.75;;;15.05;;
46721;SDS011;32455;43.430;23.136;2022-09-01T06:17:59;17.42;;;13.32;;
46721;SDS011;32455;43.430;23.136;2022-09-01T06:20:45;15.60;;;14.10;;
46721;SDS011;32455;43.430;23.136;2022-09-01T06:23:32;15.43;;;13.93;;
46721;SDS011;32455;43.430;23.136;2022-09-01T06:26:19;16.25;;;13.75;;
46721;SDS011;32455;43.430;23.136;2022-09-01T06:29:08;18.35;;;14.35;;
46721;SDS011;32455;43.430;23.136;2022-09-01T06:31:59;15.77;;;14.18;;
46721;SDS011;32455;43.430;23.136;2022-09-01T06:34:46;14.75;;;13.25;;
46721;SDS011;32455;43.430;23.136;2022-09-01T06:37:35;15.10;;;13.00;;
46721;SDS011;32455;43.430;23.136;2022-09-01T06:40:22;17.08;;;14.60;;
46721;SDS011;32455;43.430;23.136;2022-09-01T06:43:09;20.13;;;14.88;;
46721;SDS011;32455;43.430;23.136;2022-09-01T06:46:01;17.45;;;13.68;;
46721;SDS011;32455;43.430;23.136;2022-09-01T06:48:47;13.50;;;12.10;;
46721;SDS011;32455;43.430;23.136;2022-09-01T06:51:32;16.38;;;12.20;;
46721;SDS011;32455;43.430;23.136;2022-09-01T06:54:17;12.98;;;11.32;;
46721;SDS011;32455;43.430;23.136;2022-09-01T06:57:03;12.43;;;10.93;;
46721;SDS011;32455;43.430;23.136;2022-09-01T06:59:49;15.52;;;11.40;;
46721;SDS011;32455;43.430;23.136;2022-09-01T07:02:37;12.75;;;11.30;;
46721;SDS011;32455;43.430;23.136;2022-09-01T07:05:24;13.10;;;11.20;;
46721;SDS011;32455;43.430;23.136;2022-09-01T07:08:11;12.98;;;11.57;;
46721;SDS011;32455;43.430;23.136;2022-09-01T07:11:03;13.00;;;10.63;;
46721;SDS011;32455;43.430;23.136;2022-09-01T07:13:51;12.98;;;11.45;;
46721;SDS011;32455;43.430;23.136;2022-09-01T07:16:41;16.00;;;11.15;;
46721;SDS011;32455;43.430;23.136;2022-09-01T07:19:28;13.10;;;11.70;;
46721;SDS011;32455;43.430;23.136;2022-09-01T07:22:15;12.20;;;10.35;;
46721;SDS011;32455;43.430;23.136;2022-09-01T07:25:01;13.25;;;10.93;;
46721;SDS011;32455;43.430;23.136;2022-09-01T07:27:46;12.52;;;11.20;;
46721;SDS011;32455;43.430;23.136;2022-09-01T07:30:39;18.73;;;12.32;;
46721;SDS011;32455;43.430;23.136;2022-09-01T07:33:28;12.35;;;10.45;;
46721;SDS011;32455;43.430;23.136;2022-09-01T07:36:16;13.32;;;9.40;;
46721;SDS011;32455;43.430;23.136;2022-09-01T07:39:03;12.18;;;10.80;;
46721;SDS011;32455;43.430;23.136;2022-09-01T07:41:49;11.35;;;10.13;;
46721;SDS011;32455;43.430;23.136;2022-09-01T07:44:37;14.00;;;11.02;;
46721;SDS011;32455;43.430;23.136;2022-09-01T07:47:23;13.00;;;11.00;;
46721;SDS011;32455;43.430;23.136;2022-09-01T07:50:09;14.85;;;12.10;;
46721;SDS011;32455;43.430;23.136;2022-09-01T07:52:58;13.18;;;11.77;;
46721;SDS011;32455;43.430;23.136;2022-09-01T07:55:45;11.43;;;9.95;;
46721;SDS011;32455;43.430;23.136;2022-09-01T07:58:34;18.52;;;10.98;;
46721;SDS011;32455;43.430;23.136;2022-09-01T08:01:23;12.82;;;11.38;;
46721;SDS011;32455;43.430;23.136;2022-09-01T08:04:10;12.73;;;10.48;;
46721;SDS011;32455;43.430;23.136;2022-09-01T08:06:55;16.48;;;10.05;;
46721;SDS011;32455;43.430;23.136;2022-09-01T08:09:41;11.95;;;9.38;;
46721;SDS011;32455;43.430;23.136;2022-09-01T08:12:25;11.55;;;8.88;;
46721;SDS011;32455;43.430;23.136;2022-09-01T08:15:11;11.13;;;9.85;;
46721;SDS011;32455;43.430;23.136;2022-09-01T08:17:56;14.27;;;8.93;;
46721;SDS011;32455;43.430;23.136;2022-09-01T08:20:42;10.73;;;9.05;;
46721;SDS011;32455;43.430;23.136;2022-09-01T08:23:29;11.35;;;9.00;;
46721;SDS011;32455;43.430;23.136;2022-09-01T08:26:15;11.13;;;9.05;;
46721;SDS011;32455;43.430;23.136;2022-09-01T08:29:03;9.90;;;8.88;;
46721;SDS011;32455;43.430;23.136;2022-09-01T08:31:48;10.82;;;9.23;;
46721;SDS011;32455;43.430;23.136;2022-09-01T08:34:34;15.20;;;9.80;;
46721;SDS011;32455;43.430;23.136;2022-09-01T08:37:21;11.20;;;8.70;;
46721;SDS011;32455;43.430;23.136;2022-09-01T08:40:07;16.85;;;8.70;;
46721;SDS011;32455;43.430;23.136;2022-09-01T08:45:50;13.25;;;7.72;;
46721;SDS011;32455;43.430;23.136;2022-09-01T08:48:49;7.72;;;7.03;;
46721;SDS011;32455;43.430;23.136;2022-09-01T08:51:42;8.63;;;6.85;;
46721;SDS011;32455;43.430;23.136;2022-09-01T08:54:52;9.43;;;7.40;;
46721;SDS011;32455;43.430;23.136;2022-09-01T08:57:43;10.90;;;7.28;;
46721;SDS011;32455;43.430;23.136;2022-09-01T09:00:32;7.93;;;7.00;;
46721;SDS011;32455;43.430;23.136;2022-09-01T09:03:31;10.52;;;7.10;;
46721;SDS011;32455;43.430;23.136;2022-09-01T09:09:17;11.23;;;7.00;;
46721;SDS011;32455;43.430;23.136;2022-09-01T09:12:07;9.20;;;7.15;;
46721;SDS011;32455;43.430;23.136;2022-09-01T09:21:20;8.52;;;7.50;;
46721;SDS011;32455;43.430;23.136;2022-09-01T09:27:16;9.05;;;6.50;;
46721;SDS011;32455;43.430;23.136;2022-09-01T09:30:15;7.68;;;6.72;;
46721;SDS011;32455;43.430;23.136;2022-09-01T09:33:07;9.93;;;7.38;;
46721;SDS011;32455;43.430;23.136;2022-09-01T09:35:54;11.93;;;7.50;;
46721;SDS011;32455;43.430;23.136;2022-09-01T09:38:41;10.38;;;8.20;;
46721;SDS011;32455;43.430;23.136;2022-09-01T09:41:28;7.63;;;6.80;;
46721;SDS011;32455;43.430;23.136;2022-09-01T09:44:38;8.32;;;7.47;;
46721;SDS011;32455;43.430;23.136;2022-09-01T09:47:44;9.25;;;7.50;;
46721;SDS011;32455;43.430;23.136;2022-09-01T09:50:34;8.90;;;7.65;;
46721;SDS011;32455;43.430;23.136;2022-09-01T09:53:29;9.30;;;8.30;;
46721;SDS011;32455;43.430;23.136;2022-09-01T09:56:19;12.52;;;8.25;;
46721;SDS011;32455;43.430;23.136;2022-09-01T09:59:41;8.52;;;7.07;;
46721;SDS011;32455;43.430;23.136;2022-09-01T10:02:43;9.10;;;7.72;;
46721;SDS011;32455;43.430;23.136;2022-09-01T10:05:35;9.50;;;7.72;;
46721;SDS011;32455;43.430;23.136;2022-09-01T10:17:47;10.50;;;6.82;;
46721;SDS011;32455;43.430;23.136;2022-09-01T10:20:37;9.65;;;6.95;;
46721;SDS011;32455;43.430;23.136;2022-09-01T10:23:25;8.82;;;6.35;;
46721;SDS011;32455;43.430;23.136;2022-09-01T10:26:14;7.68;;;6.75;;
46721;SDS011;32455;43.430;23.136;2022-09-01T10:29:36;8.38;;;7.05;;
46721;SDS011;32455;43.430;23.136;2022-09-01T10:32:28;10.85;;;6.70;;
46721;SDS011;32455;43.430;23.136;2022-09-01T10:35:24;9.65;;;7.25;;
46721;SDS011;32455;43.430;23.136;2022-09-01T10:38:18;11.27;;;8.05;;
46721;SDS011;32455;43.430;23.136;2022-09-01T10:41:06;15.27;;;7.97;;
46721;SDS011;32455;43.430;23.136;2022-09-01T10:43:52;8.70;;;7.60;;
46721;SDS011;32455;43.430;23.136;2022-09-01T10:46:41;8.38;;;6.90;;
46721;SDS011;32455;43.430;23.136;2022-09-01T10:55:36;8.27;;;7.30;;
46721;SDS011;32455;43.430;23.136;2022-09-01T11:19:20;13.38;;;7.93;;
46721;SDS011;32455;43.430;23.136;2022-09-01T11:22:25;15.98;;;14.27;;
46721;SDS011;32455;43.430;23.136;2022-09-01T11:31:21;13.35;;;7.32;;
46721;SDS011;32455;43.430;23.136;2022-09-01T11:36:59;7.75;;;6.53;;
46721;SDS011;32455;43.430;23.136;2022-09-01T11:39:49;7.82;;;6.97;;
46721;SDS011;32455;43.430;23.136;2022-09-01T11:42:40;7.55;;;6.72;;
46721;SDS011;32455;43.430;23.136;2022-09-01T11:45:28;9.05;;;6.47;;
46721;SDS011;32455;43.430;23.136;2022-09-01T11:48:17;9.52;;;7.47;;
46721;SDS011;32455;43.430;23.136;2022-09-01T11:51:03;7.45;;;6.10;;
46721;SDS011;32455;43.430;23.136;2022-09-01T11:53:48;9.80;;;6.65;;
46721;SDS011;32455;43.430;23.136;2022-09-01T11:56:36;9.77;;;6.45;;
46721;SDS011;32455;43.430;23.136;2022-09-01T11:59:31;10.23;;;6.85;;
46721;SDS011;32455;43.430;23.136;2022-09-01T12:02:27;7.68;;;6.72;;
46721;SDS011;32455;43.430;23.136;2022-09-01T12:05:27;9.40;;;6.50;;
46721;SDS011;32455;43.430;23.136;2022-09-01T12:08:17;7.03;;;6.32;;
46721;SDS011;32455;43.430;23.136;2022-09-01T12:11:05;8.55;;;7.32;;
46721;SDS011;32455;43.430;23.136;2022-09-01T12:14:07;8.68;;;6.93;;
46721;SDS011;32455;43.430;23.136;2022-09-01T12:17:02;8.38;;;6.68;;
46721;SDS011;32455;43.430;23.136;2022-09-01T12:19:50;10.65;;;5.90;;
46721;SDS011;32455;43.430;23.136;2022-09-01T12:22:35;10.43;;;7.03;;
46721;SDS011;32455;43.430;23.136;2022-09-01T12:25:24;13.13;;;7.22;;
46721;SDS011;32455;43.430;23.136;2022-09-01T12:28:12;7.72;;;6.55;;
46721;SDS011;32455;43.430;23.136;2022-09-01T12:30:58;11.73;;;7.10;;
46721;SDS011;32455;43.430;23.136;2022-09-01T12:33:45;8.50;;;6.88;;
46721;SDS011;32455;43.430;23.136;2022-09-01T12:36:31;12.23;;;6.47;;
46721;SDS011;32455;43.430;23.136;2022-09-01T12:39:21;7.75;;;6.85;;
46721;SDS011;32455;43.430;23.136;2022-09-01T12:45:06;9.23;;;6.43;;
46721;SDS011;32455;43.430;23.136;2022-09-01T12:47:53;7.50;;;6.73;;
46721;SDS011;32455;43.430;23.136;2022-09-01T12:50:42;9.05;;;6.72;;
46721;SDS011;32455;43.430;23.136;2022-09-01T12:53:30;7.32;;;6.50;;
46721;SDS011;32455;43.430;23.136;2022-09-01T12:56:26;12.10;;;7.20;;
46721;SDS011;32455;43.430;23.136;2022-09-01T12:59:24;12.00;;;6.82;;
46721;SDS011;32455;43.430;23.136;2022-09-01T13:02:26;8.68;;;7.00;;
46721;SDS011;32455;43.430;23.136;2022-09-01T13:05:25;7.68;;;6.88;;
46721;SDS011;32455;43.430;23.136;2022-09-01T13:08:13;11.73;;;7.38;;
46721;SDS011;32455;43.430;23.136;2022-09-01T13:11:02;7.95;;;6.40;;
46721;SDS011;32455;43.430;23.136;2022-09-01T13:13:49;8.07;;;6.93;;
46721;SDS011;32455;43.430;23.136;2022-09-01T13:16:34;8.90;;;7.00;;
46721;SDS011;32455;43.430;23.136;2022-09-01T13:19:20;9.52;;;6.40;;
46721;SDS011;32455;43.430;23.136;2022-09-01T13:22:06;8.80;;;7.13;;
46721;SDS011;32455;43.430;23.136;2022-09-01T13:24:50;7.70;;;7.00;;
46721;SDS011;32455;43.430;23.136;2022-09-01T13:27:36;9.93;;;7.35;;
46721;SDS011;32455;43.430;23.136;2022-09-01T13:30:22;6.72;;;6.00;;
46721;SDS011;32455;43.430;23.136;2022-09-01T13:33:12;7.63;;;6.82;;
46721;SDS011;32455;43.430;23.136;2022-09-01T13:35:57;7.93;;;6.70;;
46721;SDS011;32455;43.430;23.136;2022-09-01T13:38:43;8.98;;;6.80;;
46721;SDS011;32455;43.430;23.136;2022-09-01T13:41:28;7.90;;;7.07;;
46721;SDS011;32455;43.430;23.136;2022-09-01T13:44:15;8.27;;;6.97;;
46721;SDS011;32455;43.430;23.136;2022-09-01T13:47:02;8.50;;;6.95;;
46721;SDS011;32455;43.430;23.136;2022-09-01T13:49:48;7.50;;;6.80;;
46721;SDS011;32455;43.430;23.136;2022-09-01T13:52:33;8.38;;;7.05;;
46721;SDS011;32455;43.430;23.136;2022-09-01T13:55:20;7.93;;;7.13;;
46721;SDS011;32455;43.430;23.136;2022-09-01T13:58:08;9.23;;;7.15;;
46721;SDS011;32455;43.430;23.136;2022-09-01T14:00:54;7.72;;;6.93;;
46721;SDS011;32455;43.430;23.136;2022-09-01T14:03:43;8.52;;;6.63;;
46721;SDS011;32455;43.430;23.136;2022-09-01T14:06:29;8.60;;;6.88;;
46721;SDS011;32455;43.430;23.136;2022-09-01T14:09:15;7.80;;;6.82;;
46721;SDS011;32455;43.430;23.136;2022-09-01T14:12:00;9.63;;;7.43;;
46721;SDS011;32455;43.430;23.136;2022-09-01T14:14:45;8.75;;;7.55;;
46721;SDS011;32455;43.430;23.136;2022-09-01T14:17:30;11.73;;;7.28;;
46721;SDS011;32455;43.430;23.136;2022-09-01T14:20:24;8.50;;;6.95;;
46721;SDS011;32455;43.430;23.136;2022-09-01T14:23:14;11.60;;;7.40;;
46721;SDS011;32455;43.430;23.136;2022-09-01T14:25:59;7.45;;;6.75;;
46721;SDS011;32455;43.430;23.136;2022-09-01T14:28:45;9.93;;;7.70;;
46721;SDS011;32455;43.430;23.136;2022-09-01T14:31:31;8.18;;;6.75;;
46721;SDS011;32455;43.430;23.136;2022-09-01T14:34:18;13.70;;;7.60;;
46721;SDS011;32455;43.430;23.136;2022-09-01T14:37:03;8.02;;;6.72;;
46721;SDS011;32455;43.430;23.136;2022-09-01T14:39:50;13.35;;;8.52;;
46721;SDS011;32455;43.430;23.136;2022-09-01T14:42:36;8.70;;;7.63;;
46721;SDS011;32455;43.430;23.136;2022-09-01T14:45:24;10.88;;;7.45;;
46721;SDS011;32455;43.430;23.136;2022-09-01T14:48:13;8.70;;;7.20;;
46721;SDS011;32455;43.430;23.136;2022-09-01T14:51:00;9.85;;;7.38;;
46721;SDS011;32455;43.430;23.136;2022-09-01T14:53:46;8.95;;;7.15;;
46721;SDS011;32455;43.430;23.136;2022-09-01T14:56:32;10.75;;;7.60;;
46721;SDS011;32455;43.430;23.136;2022-09-01T14:59:18;9.95;;;7.82;;
46721;SDS011;32455;43.430;23.136;2022-09-01T15:02:03;10.13;;;7.30;;
46721;SDS011;32455;43.430;23.136;2022-09-01T15:04:50;10.05;;;7.65;;
46721;SDS011;32455;43.430;23.136;2022-09-01T15:07:35;9.57;;;7.07;;
46721;SDS011;32455;43.430;23.136;2022-09-01T15:10:22;10.10;;;7.38;;
46721;SDS011;32455;43.430;23.136;2022-09-01T15:13:10;9.68;;;7.70;;
46721;SDS011;32455;43.430;23.136;2022-09-01T15:15:56;8.13;;;7.32;;
46721;SDS011;32455;43.430;23.136;2022-09-01T15:18:42;8.98;;;7.35;;
46721;SDS011;32455;43.430;23.136;2022-09-01T15:21:28;9.07;;;7.00;;
46721;SDS011;32455;43.430;23.136;2022-09-01T15:24:17;8.10;;;7.30;;
46721;SDS011;32455;43.430;23.136;2022-09-01T15:27:02;9.52;;;7.45;;
46721;SDS011;32455;43.430;23.136;2022-09-01T15:29:47;8.77;;;7.13;;
46721;SDS011;32455;43.430;23.136;2022-09-01T15:32:34;10.52;;;7.28;;
46721;SDS011;32455;43.430;23.136;2022-09-01T15:35:20;7.95;;;7.18;;
46721;SDS011;32455;43.430;23.136;2022-09-01T15:38:06;12.02;;;7.20;;
46721;SDS011;32455;43.430;23.136;2022-09-01T15:40:52;8.85;;;7.97;;
46721;SDS011;32455;43.430;23.136;2022-09-01T15:43:39;8.48;;;7.25;;
46721;SDS011;32455;43.430;23.136;2022-09-01T15:46:25;9.13;;;7.75;;
46721;SDS011;32455;43.430;23.136;2022-09-01T15:49:17;8.00;;;7.18;;
46721;SDS011;32455;43.430;23.136;2022-09-01T15:52:02;8.20;;;6.90;;
46721;SDS011;32455;43.430;23.136;2022-09-01T15:54:48;8.70;;;7.53;;
46721;SDS011;32455;43.430;23.136;2022-09-01T15:57:33;8.10;;;7.30;;
46721;SDS011;32455;43.430;23.136;2022-09-01T16:00:18;9.68;;;7.45;;
46721;SDS011;32455;43.430;23.136;2022-09-01T16:03:04;8.40;;;7.28;;
46721;SDS011;32455;43.430;23.136;2022-09-01T16:05:50;10.68;;;7.40;;
46721;SDS011;32455;43.430;23.136;2022-09-01T16:08:35;9.80;;;7.70;;
46721;SDS011;32455;43.430;23.136;2022-09-01T16:11:21;11.13;;;7.75;;
46721;SDS011;32455;43.430;23.136;2022-09-01T16:14:07;11.27;;;8.73;;
46721;SDS011;32455;43.430;23.136;2022-09-01T16:16:55;11.48;;;8.48;;
46721;SDS011;32455;43.430;23.136;2022-09-01T16:20:22;9.38;;;8.30;;
46721;SDS011;32455;43.430;23.136;2022-09-01T16:23:21;8.88;;;7.97;;
46721;SDS011;32455;43.430;23.136;2022-09-01T16:26:09;11.55;;;10.02;;
46721;SDS011;32455;43.430;23.136;2022-09-01T16:28:56;9.77;;;8.80;;
46721;SDS011;32455;43.430;23.136;2022-09-01T16:31:43;10.80;;;8.07;;
46721;SDS011;32455;43.430;23.136;2022-09-01T16:34:39;8.98;;;7.72;;
46721;SDS011;32455;43.430;23.136;2022-09-01T16:37:38;8.15;;;7.28;;
46721;SDS011;32455;43.430;23.136;2022-09-01T16:43:31;10.75;;;7.88;;
46721;SDS011;32455;43.430;23.136;2022-09-01T16:46:24;10.73;;;7.68;;
46721;SDS011;32455;43.430;23.136;2022-09-01T16:52:53;9.98;;;8.98;;
46721;SDS011;32455;43.430;23.136;2022-09-01T17:02:26;11.82;;;8.80;;
46721;SDS011;32455;43.430;23.136;2022-09-01T17:05:31;9.43;;;8.32;;
46721;SDS011;32455;43.430;23.136;2022-09-01T17:08:22;11.10;;;8.75;;
46721;SDS011;32455;43.430;23.136;2022-09-01T17:11:10;9.68;;;8.73;;
46721;SDS011;32455;43.430;23.136;2022-09-01T17:14:06;14.13;;;9.45;;
46721;SDS011;32455;43.430;23.136;2022-09-01T17:16:56;11.00;;;9.23;;
46721;SDS011;32455;43.430;23.136;2022-09-01T17:20:00;11.48;;;10.27;;
46721;SDS011;32455;43.430;23.136;2022-09-01T17:22:50;12.18;;;9.77;;
46721;SDS011;32455;43.430;23.136;2022-09-01T17:25:39;11.10;;;9.82;;
46721;SDS011;32455;43.430;23.136;2022-09-01T17:28:36;14.38;;;10.63;;
46721;SDS011;32455;43.430;23.136;2022-09-01T17:31:37;14.90;;;10.80;;
46721;SDS011;32455;43.430;23.136;2022-09-01T17:37:36;13.48;;;12.10;;
46721;SDS011;32455;43.430;23.136;2022-09-01T17:46:49;16.42;;;11.95;;
46721;SDS011;32455;43.430;23.136;2022-09-01T17:50:03;14.18;;;11.57;;
46721;SDS011;32455;43.430;23.136;2022-09-01T17:53:25;12.90;;;11.50;;